Time;durP1;ratioP1;P1;durP2;ratioP2;P2;SDS_P1;SDS_P2;PMS_P1;PMS_P2;Temp;Humidity;BMP_temperature;BMP_pressure;BME280_temperature;BME280_humidity;BME280_pressure;Samples;Min_cycle;Max_cycle;Signal;HPM_P1;HPM_P2
2022/06/11 00:01:53;;;;;;;;;12.60;12.60;;;;;21.09;64.35;99025.03;5131807;27;9665;-75
2022/06/11 00:04:25;;;;;;;;;12.60;12.60;;;;;21.03;64.48;99031.50;5150383;27;8840;-75
2022/06/11 00:07:05;;;;;;;;;16.40;13.20;;;;;21.10;64.41;99037.38;5150102;27;9008;-75
2022/06/11 00:09:35;;;;;;;;;14.80;13.00;;;;;21.12;64.42;99030.19;5150110;27;8847;-74
2022/06/11 00:12:05;;;;;;;;;13.00;11.80;;;;;21.05;64.46;99040.22;5150322;27;8851;-74
2022/06/11 00:14:35;;;;;;;;;12.60;12.00;;;;;21.10;64.25;99042.66;5149845;27;8855;-74
2022/06/11 00:17:07;;;;;;;;;13.60;13.60;;;;;21.00;64.61;99042.25;5149984;27;8851;-74
2022/06/11 00:19:36;;;;;;;;;11.40;11.40;;;;;20.90;64.93;99039.22;5149925;27;8843;-75
2022/06/11 00:22:06;;;;;;;;;11.60;11.60;;;;;20.96;64.80;99041.59;5150158;27;8919;-73
2022/06/11 00:24:36;;;;;;;;;13.60;13.60;;;;;20.99;64.81;99041.41;5149996;27;8861;-74
2022/06/11 00:27:05;;;;;;;;;13.20;13.20;;;;;20.92;64.66;99036.50;5149775;27;8847;-76
2022/06/11 00:29:38;;;;;;;;;13.20;13.20;;;;;20.95;64.57;99023.09;5150192;27;8823;-75
2022/06/11 00:32:09;;;;;;;;;13.80;13.00;;;;;20.92;64.57;99033.84;5150097;27;8815;-75
2022/06/11 00:34:38;;;;;;;;;14.60;14.60;;;;;20.87;64.64;99036.75;5150039;27;8874;-75
2022/06/11 00:37:07;;;;;;;;;11.80;11.80;;;;;20.92;64.49;99036.50;5149798;27;9509;-76
2022/06/11 00:39:38;;;;;;;;;15.40;15.40;;;;;20.98;64.37;99039.72;5149850;27;8924;-75
2022/06/11 00:42:10;;;;;;;;;11.80;10.40;;;;;20.93;64.31;99041.72;5153197;27;8839;-74
2022/06/11 00:44:40;;;;;;;;;13.60;13.60;;;;;20.67;65.21;99050.16;5153886;27;8981;-75
2022/06/11 00:47:17;;;;;;;;;15.20;14.20;;;;;19.46;70.17;99053.09;5153797;27;8839;-75
2022/06/11 00:49:50;;;;;;;;;19.60;16.80;;;;;18.84;73.32;99059.34;5153645;27;8867;-74
2022/06/11 00:52:30;;;;;;;;;14.60;14.60;;;;;18.46;75.55;99067.03;5153540;27;8954;-73
2022/06/11 00:55:05;;;;;;;;;15.20;15.20;;;;;18.51;76.01;99065.06;5153600;27;8851;-75
2022/06/11 00:57:38;;;;;;;;;16.60;16.00;;;;;18.48;76.06;99066.03;5153573;27;8903;-73
2022/06/11 01:00:15;;;;;;;;;14.00;14.00;;;;;18.26;77.20;99059.91;5153496;27;8816;-73
2022/06/11 01:02:46;;;;;;;;;18.00;16.80;;;;;18.26;77.64;99068.69;5153381;27;8859;-72
2022/06/11 01:05:19;;;;;;;;;19.60;19.00;;;;;18.08;79.06;99058.88;5134732;27;8862;-74
2022/06/11 01:08:21;;;;;;;;;19.40;19.00;;;;;17.96;79.89;99061.97;5153605;27;8828;-74
2022/06/11 01:11:21;;;;;;;;;17.00;16.80;;;;;17.66;82.44;99070.97;5048823;28;9036;-73
2022/06/11 01:13:58;;;;;;;;;23.20;19.60;;;;;17.65;83.40;99060.47;5009156;28;8843;-73
2022/06/11 01:16:36;;;;;;;;;23.20;20.80;;;;;17.77;83.03;99053.88;5008966;28;8866;-74
2022/06/11 01:19:30;;;;;;;;;24.60;23.20;;;;;17.70;83.67;99050.63;5008738;28;8850;-74
2022/06/11 01:22:19;;;;;;;;;23.40;22.00;;;;;17.50;84.75;99057.50;5008883;28;8957;-74
2022/06/11 01:24:59;;;;;;;;;19.80;19.80;;;;;17.51;85.72;99061.00;4992581;28;9628;-75
2022/06/11 01:27:55;;;;;;;;;23.80;23.20;;;;;17.50;86.00;99046.94;4929862;28;8904;-74
2022/06/11 01:30:28;;;;;;;;;23.40;21.60;;;;;17.56;86.35;99061.69;5008476;28;8838;-74
2022/06/11 01:33:09;;;;;;;;;21.20;20.80;;;;;17.58;86.90;99064.25;5008738;28;8884;-74
2022/06/11 01:35:50;;;;;;;;;24.20;23.20;;;;;17.59;86.94;99069.47;5008362;28;8862;-74
2022/06/11 01:38:26;;;;;;;;;24.20;23.80;;;;;17.52;87.98;99065.31;4992729;28;9817;-73
2022/06/11 01:41:06;;;;;;;;;23.20;22.60;;;;;17.48;88.44;99051.38;5008977;28;8980;-75
2022/06/11 01:43:39;;;;;;;;;22.60;22.20;;;;;17.44;89.85;99067.38;5008666;28;8858;-74
2022/06/11 01:46:17;;;;;;;;;26.00;24.40;;;;;17.20;91.75;99061.22;5008401;28;8861;-73
2022/06/11 01:48:54;;;;;;;;;22.60;22.60;;;;;17.20;92.45;99070.00;5076112;28;8842;-73
2022/06/11 01:51:33;;;;;;;;;25.20;25.20;;;;;17.20;93.08;99077.03;5132995;27;8919;-74
2022/06/11 01:54:25;;;;;;;;;26.80;26.40;;;;;17.28;92.72;99088.19;5152258;27;8839;-74
2022/06/11 01:57:11;;;;;;;;;24.00;22.40;;;;;17.29;93.35;99085.47;5152511;27;8846;-73
2022/06/11 02:00:05;;;;;;;;;17.20;15.20;;;;;17.32;92.85;99082.72;5152569;27;8835;-75
2022/06/11 02:03:03;;;;;;;;;22.80;22.80;;;;;17.33;92.81;99095.00;5152014;27;8851;-74
2022/06/11 02:05:43;;;;;;;;;28.20;28.20;;;;;17.30;93.42;99103.00;5152251;27;8839;-74
2022/06/11 02:08:20;;;;;;;;;26.40;24.80;;;;;17.25;93.94;99109.34;5152363;27;8815;-74
2022/06/11 02:10:57;;;;;;;;;26.60;26.00;;;;;17.18;95.35;99107.84;5152026;27;8919;-73
2022/06/11 02:13:32;;;;;;;;;26.60;26.60;;;;;17.25;94.52;99101.44;5151936;27;8828;-76
2022/06/11 02:16:08;;;;;;;;;25.00;24.40;;;;;17.31;94.78;99104.72;5152021;27;8959;-74
2022/06/11 02:18:40;;;;;;;;;22.80;22.00;;;;;17.38;94.32;99105.38;5151997;27;8846;-75
2022/06/11 02:21:12;;;;;;;;;27.80;26.60;;;;;17.42;93.87;99111.41;5099662;27;8843;-73
2022/06/11 02:23:46;;;;;;;;;26.20;23.80;;;;;17.44;93.73;99102.50;5151982;27;9633;-74
2022/06/11 02:26:18;;;;;;;;;24.00;23.80;;;;;17.54;93.16;99103.03;5151990;27;8863;-75
2022/06/11 02:28:48;;;;;;;;;25.40;25.20;;;;;17.66;91.36;99092.06;5151936;27;8916;-74
2022/06/11 02:31:24;;;;;;;;;29.60;27.60;;;;;17.62;91.22;99094.88;5151850;27;8985;-74
2022/06/11 02:33:55;;;;;;;;;24.80;23.20;;;;;17.79;90.10;99102.13;5151936;27;8820;-74
2022/06/11 02:36:27;;;;;;;;;25.80;25.80;;;;;17.66;90.81;99096.47;5097685;27;8827;-74
2022/06/11 02:38:58;;;;;;;;;26.20;26.20;;;;;17.64;91.20;99098.31;5151816;27;8835;-75
2022/06/11 02:41:29;;;;;;;;;28.20;27.20;;;;;17.69;90.47;99101.63;5151534;27;8847;-73
2022/06/11 02:43:59;;;;;;;;;26.40;25.80;;;;;17.58;91.42;99096.75;5151469;27;8828;-74
2022/06/11 02:46:43;;;;;;;;;25.40;24.60;;;;;17.91;89.12;99092.03;5151213;27;8952;-74
2022/06/11 02:49:17;;;;;;;;;28.20;27.40;;;;;18.25;86.31;99096.00;5105310;27;8819;-73
2022/06/11 02:51:47;;;;;;;;;24.60;24.60;;;;;18.47;84.28;99095.16;5151275;27;8952;-74
2022/06/11 02:54:17;;;;;;;;;29.50;29.00;;;;;18.52;83.28;99109.03;5151333;27;8811;-74
2022/06/11 02:56:46;;;;;;;;;29.50;27.50;;;;;18.57;83.02;99100.94;5098684;27;8874;-74
2022/06/11 02:59:16;;;;;;;;;25.60;25.60;;;;;18.66;82.04;99104.06;5151096;27;8859;-74
2022/06/11 03:01:44;;;;;;;;;26.80;26.80;;;;;18.81;81.18;99099.97;5150870;27;8836;-74
2022/06/11 03:04:15;;;;;;;;;22.60;22.00;;;;;18.54;82.34;99108.97;5150245;27;8851;-74
2022/06/11 03:06:44;;;;;;;;;26.00;26.00;;;;;18.72;81.26;99120.59;5151084;27;8843;-74
2022/06/11 03:09:18;;;;;;;;;23.60;23.60;;;;;18.90;80.23;99133.03;5151166;27;8855;-74
2022/06/11 03:11:47;;;;;;;;;29.40;29.00;;;;;18.90;80.05;99122.47;5150889;27;8824;-75
2022/06/11 03:14:16;;;;;;;;;28.40;26.60;;;;;18.95;80.13;99127.59;5150845;27;8815;-73
2022/06/11 03:16:46;;;;;;;;;23.80;22.80;;;;;18.97;79.78;99123.94;5151225;27;8851;-74
2022/06/11 03:19:18;;;;;;;;;26.40;25.00;;;;;19.01;79.62;99130.81;5151417;27;8871;-73
2022/06/11 03:21:47;;;;;;;;;19.60;19.60;;;;;19.08;79.34;99136.72;5132626;27;8903;-73
2022/06/11 03:24:16;;;;;;;;;24.20;22.40;;;;;19.19;78.48;99136.28;5150928;27;8869;-74
2022/06/11 03:26:45;;;;;;;;;24.00;22.80;;;;;19.24;78.46;99145.72;5151223;27;9666;-74
2022/06/11 03:29:15;;;;;;;;;35.00;33.00;;;;;19.22;78.29;99149.34;5151411;27;8847;-75
2022/06/11 03:31:45;;;;;;;;;28.80;25.60;;;;;19.23;78.44;99145.78;5150927;27;8908;-74
2022/06/11 03:34:16;;;;;;;;;23.20;21.40;;;;;19.21;78.17;99151.13;5150763;27;8928;-75
2022/06/11 03:36:46;;;;;;;;;24.40;24.00;;;;;19.25;78.41;99152.72;5149940;27;8859;-74
2022/06/11 03:39:16;;;;;;;;;22.40;22.40;;;;;19.29;78.24;99161.38;5150889;27;8866;-74
2022/06/11 03:41:47;;;;;;;;;24.00;24.00;;;;;19.39;77.84;99160.06;5150371;27;9697;-74
2022/06/11 03:44:17;;;;;;;;;25.00;25.00;;;;;19.04;79.57;99162.41;5150769;27;9623;-74
2022/06/11 03:46:46;;;;;;;;;22.20;22.20;;;;;19.28;78.63;99162.28;5150567;27;8836;-74
2022/06/11 03:49:17;;;;;;;;;24.00;21.20;;;;;19.39;78.01;99165.34;5150611;27;8859;-74
2022/06/11 03:51:47;;;;;;;;;46.50;38.75;;;;;18.95;80.27;99165.44;5114166;27;8827;-74
2022/06/11 03:54:16;;;;;;;;;24.00;24.00;;;;;19.05;80.11;99156.22;5132045;27;8870;-74
2022/06/11 03:56:47;;;;;;;;;22.80;22.40;;;;;19.15;79.49;99163.75;5150238;27;8871;-73
2022/06/11 03:59:16;;;;;;;;;33.20;29.80;;;;;19.23;78.96;99159.00;5150386;27;9600;-74
2022/06/11 04:01:45;;;;;;;;;27.00;25.80;;;;;19.22;79.10;99162.56;5150232;27;8866;-73
2022/06/11 04:04:18;;;;;;;;;31.60;28.60;;;;;19.41;78.32;99171.47;5150271;27;8954;-76
2022/06/11 04:06:50;;;;;;;;;28.80;28.20;;;;;19.58;77.53;99167.19;5150213;27;8900;-75
2022/06/11 04:09:22;;;;;;;;;24.20;23.60;;;;;19.72;76.63;99171.91;5149839;27;8904;-75
2022/06/11 04:11:50;;;;;;;;;26.20;25.60;;;;;19.72;76.36;99177.19;5149828;27;8850;-74
2022/06/11 04:14:19;;;;;;;;;28.20;27.00;;;;;19.85;75.89;99178.41;5150082;27;8866;-74
2022/06/11 04:16:50;;;;;;;;;26.20;25.00;;;;;19.73;76.27;99189.53;5153039;27;8831;-75
2022/06/11 04:19:24;;;;;;;;;27.80;27.80;;;;;19.26;77.98;99187.94;5154390;27;8850;-75
2022/06/11 04:21:55;;;;;;;;;26.60;26.60;;;;;19.49;77.79;99192.28;5154260;27;9009;-75
2022/06/11 04:24:25;;;;;;;;;23.00;23.00;;;;;19.52;77.37;99186.84;5154061;27;8930;-74
2022/06/11 04:26:57;;;;;;;;;25.00;23.80;;;;;19.40;77.96;99182.09;5154374;27;8839;-74
2022/06/11 04:29:31;;;;;;;;;25.00;25.00;;;;;19.59;76.49;99192.75;5154112;27;8820;-73
2022/06/11 04:32:01;;;;;;;;;25.80;25.80;;;;;19.55;77.12;99196.44;5100339;27;8839;-75
2022/06/11 04:34:32;;;;;;;;;28.80;28.60;;;;;19.29;78.38;99201.91;5153936;27;8836;-75
2022/06/11 04:37:02;;;;;;;;;23.80;23.80;;;;;19.52;77.15;99194.78;5153790;27;8851;-75
2022/06/11 04:39:33;;;;;;;;;26.40;26.00;;;;;19.53;77.11;99192.97;5154134;27;8847;-74
2022/06/11 04:42:02;;;;;;;;;26.60;26.60;;;;;19.27;78.18;99190.53;5153939;27;8824;-74
2022/06/11 04:44:31;;;;;;;;;34.20;30.60;;;;;18.73;81.25;99209.47;5135119;27;8982;-74
2022/06/11 04:46:59;;;;;;;;;26.20;26.20;;;;;19.15;79.44;99200.75;5153798;27;8866;-74
2022/06/11 04:49:28;;;;;;;;;29.60;28.80;;;;;19.43;77.80;99213.69;5153552;27;8857;-74
2022/06/11 04:51:58;;;;;;;;;28.60;27.40;;;;;19.53;77.26;99214.13;5153704;27;8936;-74
2022/06/11 04:54:27;;;;;;;;;27.20;27.00;;;;;19.73;76.53;99205.41;5153739;27;8869;-74
2022/06/11 04:56:56;;;;;;;;;27.20;27.20;;;;;20.00;75.02;99217.41;5153517;27;8832;-75
2022/06/11 04:59:24;;;;;;;;;26.00;24.80;;;;;20.00;74.75;99225.34;5153474;27;8843;-75
2022/06/11 05:01:53;;;;;;;;;27.60;27.60;;;;;20.02;74.30;99220.84;5100638;27;9114;-75
2022/06/11 05:04:22;;;;;;;;;29.80;26.40;;;;;20.14;73.86;99208.84;5153886;27;8831;-74
2022/06/11 05:06:53;;;;;;;;;27.20;26.80;;;;;20.21;73.48;99212.94;5135526;27;8988;-73
2022/06/11 05:09:25;;;;;;;;;29.20;28.60;;;;;20.37;72.62;99214.88;5153713;27;8924;-75
2022/06/11 05:11:54;;;;;;;;;30.80;28.60;;;;;20.39;72.53;99211.22;5153909;27;10069;-74
2022/06/11 05:14:24;;;;;;;;;30.20;30.00;;;;;19.53;76.72;99222.97;5116765;27;8957;-73
2022/06/11 05:16:56;;;;;;;;;29.60;28.20;;;;;18.97;80.31;99218.22;5134992;27;8982;-75
2022/06/11 05:19:25;;;;;;;;;24.60;24.40;;;;;18.51;83.28;99220.88;5152873;27;8856;-75
2022/06/11 05:21:53;;;;;;;;;31.80;30.20;;;;;18.17;85.50;99223.91;5153250;27;8855;-74
2022/06/11 05:24:23;;;;;;;;;29.60;29.60;;;;;17.97;86.96;99230.75;5153371;27;8965;-73
2022/06/11 05:26:56;;;;;;;;;29.80;28.40;;;;;18.29;85.35;99234.84;5152372;27;8839;-73
2022/06/11 05:29:29;;;;;;;;;31.40;30.60;;;;;18.28;85.38;99238.44;5099382;27;9658;-75
2022/06/11 05:31:57;;;;;;;;;31.80;28.80;;;;;18.48;84.45;99223.63;5153293;27;8830;-74
2022/06/11 05:34:27;;;;;;;;;31.00;29.20;;;;;18.82;82.49;99219.69;5153133;27;8832;-75
2022/06/11 05:36:56;;;;;;;;;32.00;30.60;;;;;18.66;83.42;99228.19;5153080;27;8863;-74
2022/06/11 05:39:27;;;;;;;;;30.40;28.40;;;;;18.51;84.66;99223.50;5152781;27;8914;-76
2022/06/11 05:41:56;;;;;;;;;35.40;30.80;;;;;18.64;83.81;99221.25;5100230;27;8851;-74
2022/06/11 05:44:25;;;;;;;;;30.40;29.80;;;;;18.55;83.97;99214.53;5135273;27;8831;-75
2022/06/11 05:46:54;;;;;;;;;33.20;28.20;;;;;18.50;84.21;99211.22;5082904;27;8927;-74
2022/06/11 05:49:29;;;;;;;;;31.60;30.60;;;;;18.49;84.77;99212.16;5152393;27;9586;-74
2022/06/11 05:52:01;;;;;;;;;29.50;28.00;;;;;18.51;85.48;99205.03;5152503;27;8861;-77
2022/06/11 05:54:35;;;;;;;;;29.40;28.00;;;;;18.34;86.14;99207.44;5152651;27;8858;-75
2022/06/11 05:57:07;;;;;;;;;30.60;29.40;;;;;18.27;87.15;99220.84;5098868;27;9051;-74
2022/06/11 05:59:38;;;;;;;;;31.00;29.20;;;;;18.22;86.45;99222.84;5117003;27;8869;-73
2022/06/11 06:02:11;;;;;;;;;29.80;29.60;;;;;18.17;86.17;99224.78;5133480;27;8819;-74
2022/06/11 06:04:40;;;;;;;;;34.40;32.00;;;;;18.26;85.99;99234.09;5152348;27;8949;-75
2022/06/11 06:07:09;;;;;;;;;31.80;30.40;;;;;18.48;85.17;99250.03;5152111;27;9494;-75
2022/06/11 06:09:39;;;;;;;;;29.00;26.25;;;;;18.72;84.05;99242.09;5151798;27;8939;-74
2022/06/11 06:12:09;;;;;;;;;35.50;31.50;;;;;19.06;82.19;99247.78;5151804;27;8835;-75
2022/06/11 06:14:38;;;;;;;;;30.20;29.40;;;;;19.21;81.26;99259.53;5151460;27;8815;-74
2022/06/11 06:17:06;;;;;;;;;31.75;29.25;;;;;18.76;83.98;99259.53;5151628;27;8855;-74
2022/06/11 06:19:55;;;;;;;;;30.75;27.50;;;;;18.68;84.78;99250.13;5133136;27;8893;-73
2022/06/11 06:22:24;;;;;;;;;30.25;30.00;;;;;18.67;85.25;99253.66;5133074;27;8843;-74
2022/06/11 06:24:53;;;;;;;;;32.80;31.00;;;;;18.83;84.66;99253.13;5133166;27;8836;-75
2022/06/11 06:27:22;;;;;;;;;33.25;31.75;;;;;18.77;84.17;99248.03;5133119;27;8854;-75
2022/06/11 06:29:51;;;;;;;;;30.40;29.60;;;;;18.76;84.55;99254.25;5151188;27;8857;-75
2022/06/11 06:32:19;;;;;;;;;28.50;28.50;;;;;18.93;84.10;99261.56;5133056;27;8954;-76
2022/06/11 06:34:48;;;;;;;;;30.00;29.75;;;;;19.03;83.33;99254.97;5151396;27;8824;-74
2022/06/11 06:37:16;;;;;;;;;29.80;29.00;;;;;18.83;83.60;99253.13;5132776;27;8823;-75
2022/06/11 06:39:45;;;;;;;;;28.00;28.00;;;;;19.22;82.19;99239.22;5150817;27;8855;-75
2022/06/11 06:42:15;;;;;;;;;27.60;26.20;;;;;19.44;80.21;99248.00;5098404;27;8935;-75
2022/06/11 06:44:46;;;;;;;;;25.20;24.40;;;;;19.47;79.44;99250.53;5151530;27;8839;-75
2022/06/11 06:47:15;;;;;;;;;31.00;30.00;;;;;19.48;79.81;99238.16;5150966;27;8847;-75
2022/06/11 06:49:43;;;;;;;;;27.20;27.20;;;;;19.60;78.61;99234.13;5132643;27;8859;-74
2022/06/11 06:52:12;;;;;;;;;26.40;25.20;;;;;19.51;77.73;99247.72;5150849;27;8851;-75
2022/06/11 06:54:40;;;;;;;;;30.75;27.50;;;;;19.37;79.36;99245.66;5150899;27;8848;-75
2022/06/11 06:57:09;;;;;;;;;31.00;29.80;;;;;19.51;78.41;99231.88;5150806;27;9010;-74
2022/06/11 06:59:39;;;;;;;;;28.00;27.40;;;;;19.77;76.64;99234.31;5151157;27;8985;-76
2022/06/11 07:02:07;;;;;;;;;26.40;25.60;;;;;19.79;77.10;99234.22;5150652;27;8843;-75
2022/06/11 07:04:36;;;;;;;;;30.40;29.60;;;;;19.96;76.01;99233.47;5150490;27;8843;-75
2022/06/11 07:07:05;;;;;;;;;28.60;27.60;;;;;19.77;77.37;99236.97;5150558;27;9644;-74
2022/06/11 07:09:34;;;;;;;;;29.20;29.00;;;;;19.92;76.61;99229.25;5150852;27;8839;-74
2022/06/11 07:12:03;;;;;;;;;26.40;26.00;;;;;20.03;77.02;99235.78;5151262;27;8961;-74
2022/06/11 07:14:31;;;;;;;;;27.80;27.40;;;;;20.17;75.78;99229.91;5132062;27;8835;-74
2022/06/11 07:17:06;;;;;;;;;25.80;25.80;;;;;20.32;75.74;99233.66;5151118;27;8835;-75
2022/06/11 07:19:42;;;;;;;;;24.40;24.20;;;;;20.70;74.20;99248.69;5132628;27;8859;-75
2022/06/11 07:22:16;;;;;;;;;30.00;28.80;;;;;20.34;74.66;99234.44;5099934;27;9557;-73
2022/06/11 07:24:45;;;;;;;;;31.60;30.00;;;;;20.35;75.66;99240.59;5151373;27;8878;-74
2022/06/11 07:27:16;;;;;;;;;29.40;29.20;;;;;20.44;75.17;99245.47;5151699;27;9676;-77
2022/06/11 07:29:50;;;;;;;;;30.80;29.60;;;;;20.38;75.38;99249.25;5151391;27;8886;-75
2022/06/11 07:32:35;;;;;;;;;32.75;30.25;;;;;20.18;75.49;99259.88;5097339;27;8827;-75
2022/06/11 07:35:04;;;;;;;;;28.40;27.20;;;;;20.39;74.76;99250.94;5151023;27;8870;-76
2022/06/11 07:37:33;;;;;;;;;30.20;29.60;;;;;20.45;72.88;99263.06;5150663;27;8842;-75
2022/06/11 07:40:02;;;;;;;;;24.80;24.20;;;;;20.49;72.16;99258.47;5150498;27;8999;-75
2022/06/11 07:42:31;;;;;;;;;26.00;25.60;;;;;20.47;73.12;99263.00;5150539;27;8915;-74
2022/06/11 07:44:59;;;;;;;;;26.20;25.40;;;;;20.56;72.82;99255.47;5150812;27;8916;-75
2022/06/11 07:50:26;;;;;;;;;27.00;26.60;;;;;20.95;72.55;99264.31;5085581;28;8881;-76
2022/06/11 07:52:55;;;;;;;;;32.00;30.00;;;;;20.92;72.23;99260.00;5085564;28;8877;-76
2022/06/11 07:55:25;;;;;;;;;27.00;26.80;;;;;21.06;71.39;99251.41;5035862;28;8816;-76
2022/06/11 07:57:55;;;;;;;;;25.80;24.40;;;;;21.31;70.45;99251.06;5085833;28;8815;-75
2022/06/11 08:00:26;;;;;;;;;24.00;23.00;;;;;21.61;69.42;99256.66;5085873;28;8863;-75
2022/06/11 08:02:56;;;;;;;;;25.60;25.40;;;;;22.17;66.69;99262.63;5085759;28;8887;-76
2022/06/11 08:05:24;;;;;;;;;26.00;25.80;;;;;22.41;65.25;99269.41;5068834;28;8857;-74
2022/06/11 08:07:54;;;;;;;;;29.20;26.80;;;;;21.86;67.60;99254.56;5085124;28;8839;-76
2022/06/11 08:10:25;;;;;;;;;25.80;25.80;;;;;22.26;67.17;99256.00;5085720;28;8831;-76
2022/06/11 08:12:54;;;;;;;;;26.60;26.60;;;;;22.16;67.48;99257.41;5085707;28;8958;-75
2022/06/11 08:15:23;;;;;;;;;28.20;28.00;;;;;21.99;67.86;99260.94;5085388;28;8835;-75
2022/06/11 08:17:52;;;;;;;;;23.40;22.60;;;;;22.08;67.74;99252.50;5085554;28;9629;-75
2022/06/11 08:20:25;;;;;;;;;23.80;23.20;;;;;22.36;67.19;99257.22;5085685;28;8848;-76
2022/06/11 08:22:54;;;;;;;;;24.60;24.60;;;;;22.81;65.08;99259.25;5085772;28;8824;-75
2022/06/11 08:25:23;;;;;;;;;27.20;27.20;;;;;22.77;63.81;99262.06;5085690;28;8928;-76
2022/06/11 08:27:52;;;;;;;;;24.20;23.40;;;;;23.00;63.32;99261.72;5101078;28;8839;-76
2022/06/11 08:30:23;;;;;;;;;29.80;28.40;;;;;23.02;62.94;99260.69;5107854;28;8873;-76
2022/06/11 08:32:52;;;;;;;;;25.00;25.00;;;;;22.70;65.13;99262.50;5108697;28;8867;-76
2022/06/11 08:35:24;;;;;;;;;24.80;23.80;;;;;23.03;64.54;99265.13;5108516;28;8854;-76
2022/06/11 08:37:53;;;;;;;;;24.80;23.00;;;;;22.90;64.57;99264.91;5107111;28;8827;-75
2022/06/11 08:40:28;;;;;;;;;31.40;27.40;;;;;22.65;65.64;99260.09;5072929;28;9047;-76
2022/06/11 08:43:00;;;;;;;;;26.60;26.60;;;;;22.33;66.50;99270.66;5108082;28;8843;-76
2022/06/11 08:45:37;;;;;;;;;27.60;27.60;;;;;22.02;67.48;99266.06;5090436;28;8839;-76
2022/06/11 08:48:15;;;;;;;;;27.40;26.40;;;;;22.08;67.81;99270.22;5108542;28;8861;-76
2022/06/11 08:50:55;;;;;;;;;27.60;25.40;;;;;22.37;66.67;99272.22;5108244;28;8854;-76
2022/06/11 08:53:24;;;;;;;;;23.20;23.20;;;;;22.31;67.29;99274.38;5107635;28;8911;-75
2022/06/11 08:55:52;;;;;;;;;28.20;25.80;;;;;21.93;68.48;99277.19;5108255;28;8903;-77
2022/06/11 08:58:35;;;;;;;;;29.20;26.00;;;;;21.95;68.89;99275.31;5108247;28;8826;-75
2022/06/11 09:01:11;;;;;;;;;25.20;25.20;;;;;22.27;67.97;99275.44;5108205;28;8857;-74
2022/06/11 09:03:56;;;;;;;;;33.60;28.80;;;;;22.17;67.82;99267.94;5130096;27;8966;-76
2022/06/11 09:06:48;;;;;;;;;29.00;29.00;;;;;22.24;68.35;99275.59;5153247;27;8935;-74
2022/06/11 09:09:25;;;;;;;;;31.60;29.40;;;;;22.54;66.43;99263.34;5153297;27;8852;-76
2022/06/11 09:12:11;;;;;;;;;27.00;27.00;;;;;22.65;65.97;99267.22;5152944;27;8850;-76
2022/06/11 09:15:11;;;;;;;;;26.00;25.40;;;;;23.01;65.17;99271.44;5152759;27;8865;-75
2022/06/11 09:18:21;;;;;;;;;27.00;24.80;;;;;23.49;63.63;99261.63;5048631;28;8895;-76
2022/06/11 09:21:00;;;;;;;;;26.60;24.80;;;;;23.00;65.35;99280.34;4992643;28;8870;-76
2022/06/11 09:23:55;;;;;;;;;26.00;25.20;;;;;23.06;65.65;99261.41;5009150;28;8858;-76
2022/06/11 09:26:44;;;;;;;;;30.20;26.40;;;;;23.20;64.67;99271.28;5009322;28;8881;-75
2022/06/11 09:29:18;;;;;;;;;24.80;23.80;;;;;22.95;64.50;99267.31;5009028;28;9096;-77
2022/06/11 09:31:49;;;;;;;;;22.40;21.80;;;;;22.92;65.26;99260.34;5009133;28;8878;-76
2022/06/11 09:34:26;;;;;;;;;23.80;23.00;;;;;23.08;64.58;99257.75;5009009;28;8850;-78
2022/06/11 09:37:03;;;;;;;;;24.80;24.80;;;;;23.24;64.67;99265.69;5009118;28;8942;-75
2022/06/11 09:39:40;;;;;;;;;25.80;25.80;;;;;23.10;64.83;99271.81;5008600;28;8846;-75
2022/06/11 09:42:40;;;;;;;;;23.00;22.00;;;;;23.06;65.51;99266.72;4992175;28;8958;-75
2022/06/11 09:45:18;;;;;;;;;22.80;22.80;;;;;23.08;64.99;99263.06;5008408;28;8862;-76
2022/06/11 09:47:55;;;;;;;;;22.80;21.60;;;;;22.91;65.65;99271.97;5005919;28;8860;-77
2022/06/11 09:50:30;;;;;;;;;19.60;19.00;;;;;22.68;65.89;99272.34;5008269;28;9664;-75
2022/06/11 09:53:20;;;;;;;;;22.40;21.80;;;;;22.89;64.06;99262.31;5008563;28;8859;-78
2022/06/11 09:55:58;;;;;;;;;25.20;23.60;;;;;22.96;64.30;99261.06;5049230;28;8834;-76
2022/06/11 09:58:39;;;;;;;;;23.00;21.80;;;;;22.97;63.75;99265.44;5121598;27;9616;-76
2022/06/11 10:01:13;;;;;;;;;22.80;22.80;;;;;23.26;63.67;99265.63;5152328;27;8941;-75
2022/06/11 10:03:48;;;;;;;;;24.00;23.80;;;;;23.04;63.82;99266.81;5152374;27;8839;-75
2022/06/11 10:06:22;;;;;;;;;22.20;21.60;;;;;23.17;63.00;99259.00;5152007;27;8812;-76
2022/06/11 10:08:56;;;;;;;;;19.00;19.00;;;;;23.05;63.49;99257.91;5116381;27;8851;-75
2022/06/11 10:11:31;;;;;;;;;20.20;19.40;;;;;23.05;64.03;99246.41;5152876;27;8831;-76
2022/06/11 10:14:28;;;;;;;;;21.60;21.40;;;;;23.23;63.18;99240.06;5152129;27;8986;-75
2022/06/11 10:17:00;;;;;;;;;19.80;19.60;;;;;23.55;62.48;99237.28;5152434;27;8863;-74
2022/06/11 10:19:36;;;;;;;;;25.60;25.20;;;;;23.61;62.43;99241.38;5151665;27;8998;-76
2022/06/11 10:22:17;;;;;;;;;23.60;22.60;;;;;23.80;61.78;99234.06;5151803;27;8823;-74
2022/06/11 10:24:57;;;;;;;;;20.00;20.00;;;;;23.62;62.02;99235.13;5151387;27;8855;-75
2022/06/11 10:27:41;;;;;;;;;22.00;21.00;;;;;23.82;61.64;99226.84;5151766;27;8820;-75
2022/06/11 10:30:23;;;;;;;;;19.80;19.60;;;;;23.87;61.07;99239.88;5107539;28;8921;-75
2022/06/11 10:32:55;;;;;;;;;19.00;19.00;;;;;23.81;61.14;99235.78;5076499;28;8827;-75
2022/06/11 10:35:30;;;;;;;;;20.20;20.00;;;;;24.27;59.53;99219.66;5037325;28;9821;-75
2022/06/11 10:38:12;;;;;;;;;21.80;19.60;;;;;24.86;57.71;99215.97;5087354;28;9016;-75
2022/06/11 10:40:43;;;;;;;;;15.40;15.20;;;;;24.54;58.95;99218.91;5087292;28;9651;-77
2022/06/11 10:43:18;;;;;;;;;17.00;17.00;;;;;24.67;58.19;99224.31;5087019;28;8877;-76
2022/06/11 10:45:49;;;;;;;;;17.40;17.40;;;;;24.64;57.56;99224.50;5097385;28;8855;-76
2022/06/11 10:48:20;;;;;;;;;17.40;17.40;;;;;24.71;57.44;99216.00;5107503;28;8839;-75
2022/06/11 10:50:49;;;;;;;;;15.20;14.60;;;;;25.35;55.90;99215.44;5095041;28;8865;-78
2022/06/11 10:53:24;;;;;;;;;18.40;18.20;;;;;25.83;52.66;99212.19;5086842;28;8850;-75
2022/06/11 10:55:56;;;;;;;;;20.00;20.00;;;;;26.24;51.03;99209.31;5087427;28;8853;-75
2022/06/11 10:58:34;;;;;;;;;18.80;18.00;;;;;26.65;50.57;99204.66;5087156;28;8903;-77
2022/06/11 11:01:07;;;;;;;;;23.40;22.40;;;;;26.59;50.39;99205.97;5087140;28;8849;-77
2022/06/11 11:03:42;;;;;;;;;21.20;19.60;;;;;26.24;51.07;99198.63;5086805;28;8868;-76
2022/06/11 11:06:18;;;;;;;;;14.00;14.00;;;;;25.80;51.06;99207.06;5070894;28;8837;-76
2022/06/11 11:08:53;;;;;;;;;14.20;14.20;;;;;25.68;50.99;99196.25;5097422;27;9572;-77
2022/06/11 11:11:23;;;;;;;;;16.20;16.20;;;;;25.90;51.23;99200.13;5094150;27;8838;-76
2022/06/11 11:14:06;;;;;;;;;19.20;18.20;;;;;25.84;51.25;99195.19;5128611;27;8826;-75
2022/06/11 11:16:39;;;;;;;;;17.40;17.00;;;;;26.00;51.57;99211.91;5129887;27;8849;-76
2022/06/11 11:19:17;;;;;;;;;20.20;20.00;;;;;26.07;51.82;99209.66;5128741;27;8839;-76
2022/06/11 11:21:54;;;;;;;;;17.40;17.00;;;;;26.27;51.53;99186.84;5128706;27;8842;-76
2022/06/11 11:24:27;;;;;;;;;20.20;19.00;;;;;26.33;51.06;99175.72;5136664;27;8851;-75
2022/06/11 11:27:01;;;;;;;;;17.20;16.80;;;;;26.04;50.97;99184.00;5124256;27;8834;-75
2022/06/11 11:29:34;;;;;;;;;18.00;18.00;;;;;26.02;51.61;99185.94;5146898;27;8866;-75
2022/06/11 11:32:07;;;;;;;;;17.80;17.80;;;;;26.20;53.32;99175.75;5144191;27;8933;-77
2022/06/11 11:34:44;;;;;;;;;19.00;19.00;;;;;26.03;55.41;99182.31;5132432;27;8885;-76
2022/06/11 11:37:24;;;;;;;;;17.00;17.00;;;;;26.11;54.75;99175.56;5129877;27;8831;-75
2022/06/11 11:39:55;;;;;;;;;15.80;15.80;;;;;26.24;54.11;99166.56;5129822;27;8940;-75
2022/06/11 11:42:26;;;;;;;;;21.60;18.80;;;;;26.32;52.97;99167.84;5129765;27;8819;-76
2022/06/11 11:44:58;;;;;;;;;18.20;18.00;;;;;25.80;54.01;99157.19;5129680;27;8834;-75
2022/06/11 11:47:33;;;;;;;;;18.60;18.60;;;;;25.82;53.37;99163.25;5129624;27;8838;-75
2022/06/11 11:50:08;;;;;;;;;17.00;17.00;;;;;25.93;52.38;99162.53;5129552;27;8838;-76
2022/06/11 11:52:41;;;;;;;;;20.40;18.20;;;;;26.09;52.09;99162.31;5129303;27;8851;-77
2022/06/11 11:55:18;;;;;;;;;17.00;16.00;;;;;26.04;53.17;99143.06;5129351;27;8981;-76
2022/06/11 11:57:56;;;;;;;;;18.00;17.40;;;;;26.12;52.75;99142.50;5129440;27;8834;-76